createdAt,value
2023-07-24T00:01:37.861Z,21.60
2023-07-24T00:05:39.860Z,21.20
2023-07-24T00:09:41.940Z,21.09
2023-07-24T00:13:43.963Z,21.04
2023-07-24T00:17:46.132Z,20.90
2023-07-24T00:21:48.198Z,20.99
2023-07-24T00:25:50.282Z,20.98
2023-07-24T00:29:52.444Z,21.03
2023-07-24T00:33:54.611Z,21.11
2023-07-24T00:37:56.688Z,20.93
2023-07-24T00:41:58.822Z,20.78
2023-07-24T00:46:00.897Z,20.69
2023-07-24T00:50:03.243Z,20.76
2023-07-24T00:54:07.077Z,20.91
2023-07-24T00:58:12.348Z,20.95
2023-07-24T01:02:14.539Z,21.05
2023-07-24T01:06:20.931Z,21.08
2023-07-24T01:10:28.839Z,21.04
2023-07-24T01:14:56.390Z,20.93
2023-07-24T01:18:58.838Z,21.03
2023-07-24T01:23:23.061Z,21.00
2023-07-24T01:27:25.852Z,20.79
2023-07-24T01:31:28.723Z,20.78
2023-07-24T01:35:33.104Z,20.77
2023-07-24T01:39:36.472Z,20.69
2023-07-24T01:43:38.745Z,20.65
2023-07-24T01:47:41.116Z,20.37
2023-07-24T01:51:43.156Z,20.62
2023-07-24T01:55:45.296Z,20.70
2023-07-24T01:59:47.831Z,20.75
2023-07-24T02:03:50.183Z,20.87
2023-07-24T02:07:52.231Z,20.91
2023-07-24T02:11:57.400Z,20.67
2023-07-24T02:16:01.342Z,20.85
2023-07-24T02:20:04.030Z,20.54
2023-07-24T02:24:18.105Z,20.50
2023-07-24T02:28:20.221Z,20.19
2023-07-24T02:32:25.152Z,20.22
2023-07-24T02:36:27.576Z,19.95
2023-07-24T02:40:29.881Z,19.86
2023-07-24T02:44:35.178Z,20.27
2023-07-24T02:48:38.072Z,20.53
2023-07-24T02:52:40.249Z,20.48
2023-07-24T02:56:42.356Z,20.41
2023-07-24T03:00:44.471Z,20.40
2023-07-24T03:04:46.574Z,20.43
2023-07-24T03:08:48.827Z,20.62
2023-07-24T03:12:50.958Z,20.59
2023-07-24T03:16:53.008Z,20.58
2023-07-24T03:20:55.133Z,20.61
2023-07-24T03:24:57.173Z,20.69
2023-07-24T03:28:59.263Z,20.46
2023-07-24T03:33:02.830Z,20.60
2023-07-24T03:37:07.409Z,20.27
2023-07-24T03:41:09.651Z,20.40
2023-07-24T03:45:11.832Z,20.07
2023-07-24T03:49:14.015Z,19.76
2023-07-24T03:53:16.120Z,19.86
2023-07-24T03:57:18.150Z,20.00
2023-07-24T04:01:20.422Z,20.07
2023-07-24T04:05:22.717Z,20.20
2023-07-24T04:09:24.769Z,20.45
2023-07-24T04:13:26.849Z,20.58
2023-07-24T04:17:28.966Z,20.91
2023-07-24T04:21:31.154Z,21.16
2023-07-24T04:25:33.187Z,21.27
2023-07-24T04:29:35.831Z,21.42
2023-07-24T04:33:37.998Z,21.67
2023-07-24T04:37:40.054Z,21.86
2023-07-24T04:41:42.133Z,21.89
2023-07-24T04:45:44.197Z,21.97
2023-07-24T04:49:46.421Z,21.92
2023-07-24T04:53:48.665Z,21.98
2023-07-24T04:57:50.743Z,21.94
2023-07-24T05:01:52.957Z,22.03
2023-07-24T05:05:57.521Z,22.21
2023-07-24T05:10:00.264Z,22.61
2023-07-24T05:14:02.449Z,22.57
2023-07-24T05:18:04.699Z,22.93
2023-07-24T05:22:07.064Z,23.24
2023-07-24T05:26:09.280Z,23.24
2023-07-24T05:30:11.597Z,23.36
2023-07-24T05:34:13.721Z,23.21
2023-07-24T05:38:15.789Z,23.07
2023-07-24T05:42:18.100Z,22.59
2023-07-24T05:46:20.682Z,22.45
2023-07-24T05:50:24.629Z,22.53
2023-07-24T05:54:28.445Z,22.59
2023-07-24T05:58:32.375Z,22.65
2023-07-24T06:02:34.943Z,23.15
2023-07-24T06:06:37.872Z,23.45
2023-07-24T06:10:40.034Z,23.40
2023-07-24T06:14:42.299Z,23.54
2023-07-24T06:18:44.423Z,23.89
2023-07-24T06:22:46.626Z,24.27
2023-07-24T06:26:48.874Z,24.54
2023-07-24T06:30:54.556Z,24.88
2023-07-24T06:34:56.802Z,25.18
2023-07-24T06:38:59.013Z,25.40
2023-07-24T06:43:01.267Z,25.54
2023-07-24T06:47:03.508Z,25.58
2023-07-24T06:51:05.738Z,25.80
2023-07-24T06:55:08.568Z,26.15
2023-07-24T06:59:10.639Z,26.18
2023-07-24T07:03:16.533Z,26.28
2023-07-24T07:07:18.770Z,26.58
2023-07-24T07:11:21.323Z,26.92
2023-07-24T07:15:23.507Z,27.26
2023-07-24T07:19:25.542Z,27.57
2023-07-24T07:23:27.541Z,27.80
2023-07-24T07:27:29.568Z,28.07
2023-07-24T07:31:31.820Z,28.37
2023-07-24T07:35:34.684Z,28.54
2023-07-24T07:39:37.346Z,28.55
2023-07-24T07:43:40.183Z,28.30
2023-07-24T07:47:42.392Z,28.36
2023-07-24T07:51:44.487Z,28.35
2023-07-24T07:55:46.662Z,28.30
2023-07-24T07:59:48.776Z,28.49
2023-07-24T08:03:51.008Z,28.80
2023-07-24T08:07:53.209Z,29.15
2023-07-24T08:11:55.244Z,29.36
2023-07-24T08:15:57.412Z,29.66
2023-07-24T08:19:59.580Z,29.89
2023-07-24T08:24:03.249Z,30.03
2023-07-24T08:28:06.841Z,30.51
2023-07-24T08:32:09.470Z,30.95
2023-07-24T08:36:13.601Z,31.32
2023-07-24T08:40:16.946Z,31.51
2023-07-24T08:44:21.674Z,31.39
2023-07-24T08:48:24.826Z,31.71
2023-07-24T08:52:35.946Z,31.94
2023-07-24T08:56:40.535Z,32.47
2023-07-24T09:00:42.684Z,32.90
2023-07-24T09:04:50.056Z,33.27
2023-07-24T09:08:59.318Z,32.97
2023-07-24T09:13:05.314Z,32.65
2023-07-24T09:17:09.371Z,32.72
2023-07-24T09:21:14.866Z,32.75
2023-07-24T09:25:17.280Z,32.65
2023-07-24T09:29:19.934Z,32.54
2023-07-24T09:33:35.797Z,32.41
2023-07-24T09:37:37.968Z,32.33
2023-07-24T09:41:41.794Z,32.29
2023-07-24T09:45:46.006Z,32.40
2023-07-24T09:49:49.243Z,32.51
2023-07-24T09:53:59.907Z,32.72
2023-07-24T09:58:02.689Z,33.00
2023-07-24T10:02:05.303Z,33.24
2023-07-24T10:06:11.800Z,33.26
2023-07-24T10:10:14.514Z,33.44
2023-07-24T10:14:17.429Z,33.58
2023-07-24T10:18:26.485Z,33.97
2023-07-24T10:22:29.674Z,34.27
2023-07-24T10:26:32.027Z,34.36
2023-07-24T10:30:41.620Z,34.36
2023-07-24T10:34:43.731Z,34.23
2023-07-24T10:38:45.950Z,34.34
2023-07-24T10:42:48.063Z,34.34
2023-07-24T10:46:50.145Z,34.31
2023-07-24T10:50:54.711Z,34.28
2023-07-24T10:54:57.763Z,34.31
2023-07-24T10:59:04.583Z,34.37
2023-07-24T11:03:10.542Z,34.19
2023-07-24T11:07:12.731Z,34.22
2023-07-24T11:11:35.487Z,34.56
2023-07-24T11:15:38.137Z,34.76
2023-07-24T11:20:14.081Z,34.95
2023-07-24T11:24:18.997Z,35.19
2023-07-24T11:28:21.685Z,35.09
2023-07-24T11:32:23.836Z,35.10
2023-07-24T11:36:26.067Z,35.10
2023-07-24T11:40:38.467Z,35.12
2023-07-24T11:44:41.087Z,35.33
2023-07-24T11:48:43.466Z,35.18
2023-07-24T11:52:51.056Z,35.11
2023-07-24T11:56:53.323Z,35.22
2023-07-24T12:00:56.016Z,35.11
2023-07-24T12:05:01.419Z,35.23
2023-07-24T12:09:08.076Z,35.40
2023-07-24T12:13:10.820Z,35.54
2023-07-24T12:17:19.602Z,35.92
2023-07-24T12:21:21.756Z,36.15
2023-07-24T12:25:24.242Z,36.00
2023-07-24T12:29:26.951Z,35.95
2023-07-24T12:33:29.028Z,36.55
2023-07-24T12:37:31.183Z,36.85
2023-07-24T12:41:33.643Z,37.06
2023-07-24T12:45:36.105Z,37.15
2023-07-24T12:49:38.960Z,36.76
2023-07-24T12:53:44.574Z,36.98
2023-07-24T12:57:52.403Z,37.01
2023-07-24T13:01:54.532Z,37.26
2023-07-24T13:05:56.585Z,36.78
2023-07-24T13:09:58.698Z,37.14
2023-07-24T13:14:00.789Z,37.32
2023-07-24T13:18:13.780Z,37.54
2023-07-24T13:22:24.376Z,37.15
2023-07-24T13:26:26.463Z,37.29
2023-07-24T13:30:28.648Z,37.55
2023-07-24T13:34:30.824Z,37.61
2023-07-24T13:38:33.781Z,37.31
2023-07-24T13:42:36.293Z,37.11
2023-07-24T13:46:40.452Z,36.81
2023-07-24T13:50:42.906Z,36.71
2023-07-24T13:54:45.020Z,36.75
2023-07-24T13:58:47.056Z,37.10
2023-07-24T14:02:49.288Z,37.67
2023-07-24T14:06:51.316Z,37.97
2023-07-24T14:10:53.454Z,37.59
2023-07-24T14:14:55.512Z,37.38
2023-07-24T14:18:57.636Z,36.85
2023-07-24T14:22:59.814Z,36.56
2023-07-24T14:27:02.264Z,36.45
2023-07-24T14:31:05.585Z,36.53
2023-07-24T14:35:08.170Z,36.27
2023-07-24T14:39:10.279Z,36.03
2023-07-24T14:43:12.555Z,35.80
2023-07-24T14:47:14.824Z,35.87
2023-07-24T14:51:16.863Z,35.83
2023-07-24T14:55:18.993Z,35.89
2023-07-24T14:59:21.106Z,36.03
2023-07-24T15:03:24.405Z,36.01
2023-07-24T15:07:26.564Z,36.35
2023-07-24T15:11:28.865Z,36.46
2023-07-24T15:15:31.040Z,36.66
2023-07-24T15:19:33.161Z,36.60
2023-07-24T15:23:35.231Z,36.29
2023-07-24T15:27:37.379Z,35.97
2023-07-24T15:31:42.089Z,35.99
2023-07-24T15:35:44.403Z,35.78
2023-07-24T15:39:46.511Z,35.31
2023-07-24T15:43:48.568Z,35.41
2023-07-24T15:47:50.722Z,35.39
2023-07-24T15:51:52.950Z,35.32
2023-07-24T15:55:55.125Z,35.14
2023-07-24T15:59:57.377Z,34.49
2023-07-24T16:03:59.522Z,34.09
2023-07-24T16:08:02.527Z,34.13
2023-07-24T16:12:04.948Z,34.01
2023-07-24T16:16:07.462Z,33.86
2023-07-24T16:20:10.174Z,33.85
2023-07-24T16:24:12.634Z,33.80
2023-07-24T16:28:14.850Z,33.67
2023-07-24T16:32:17.000Z,33.69
2023-07-24T16:36:19.394Z,33.69
2023-07-24T16:40:21.641Z,33.23
2023-07-24T16:44:33.257Z,33.13
2023-07-24T16:48:35.909Z,32.87
2023-07-24T16:52:38.094Z,32.93
2023-07-24T16:56:40.279Z,32.82
2023-07-24T17:00:42.532Z,32.22
2023-07-24T17:04:44.676Z,32.14
2023-07-24T17:08:47.939Z,31.75
2023-07-24T17:12:50.157Z,31.56
2023-07-24T17:16:52.314Z,31.46
2023-07-24T17:20:54.920Z,31.57
2023-07-24T17:24:57.347Z,31.60
2023-07-24T17:29:02.925Z,31.57
2023-07-24T17:33:05.191Z,31.51
2023-07-24T17:37:07.505Z,31.55
2023-07-24T17:41:10.672Z,31.53
2023-07-24T17:45:15.765Z,31.63
2023-07-24T17:49:17.995Z,31.74
2023-07-24T17:53:20.053Z,31.76
2023-07-24T17:57:22.282Z,31.56
2023-07-24T18:01:24.878Z,31.36
2023-07-24T18:05:27.310Z,31.27
2023-07-24T18:09:29.717Z,31.15
2023-07-24T18:13:31.836Z,31.08
2023-07-24T18:17:36.511Z,30.85
2023-07-24T18:21:39.550Z,30.77
2023-07-24T18:25:41.777Z,30.62
2023-07-24T18:29:46.178Z,30.58
2023-07-24T18:33:48.266Z,30.43
2023-07-24T18:37:50.622Z,30.27
2023-07-24T18:41:52.829Z,30.00
2023-07-24T18:45:58.321Z,29.82
2023-07-24T18:50:00.918Z,29.80
2023-07-24T18:54:03.178Z,29.59
2023-07-24T18:58:05.305Z,29.57
2023-07-24T19:02:07.396Z,29.43
2023-07-24T19:06:09.792Z,29.42
2023-07-24T19:10:15.778Z,29.52
2023-07-24T19:14:18.011Z,29.58
2023-07-24T19:18:20.040Z,29.62
2023-07-24T19:22:22.115Z,29.56
2023-07-24T19:26:24.259Z,29.53
2023-07-24T19:30:26.417Z,29.54
2023-07-24T19:34:28.569Z,29.51
2023-07-24T19:38:30.617Z,29.57
2023-07-24T19:42:32.718Z,29.58
2023-07-24T19:46:34.882Z,29.69
2023-07-24T19:50:37.079Z,29.86
2023-07-24T19:54:39.284Z,29.91
2023-07-24T19:58:41.606Z,29.90
2023-07-24T20:02:43.813Z,29.83
2023-07-24T20:06:46.745Z,29.85
2023-07-24T20:10:50.219Z,30.01
2023-07-24T20:14:52.510Z,30.34
2023-07-24T20:18:54.816Z,30.30
2023-07-24T20:22:57.084Z,30.27
2023-07-24T20:26:59.318Z,30.22
2023-07-24T20:31:01.756Z,30.22
2023-07-24T20:35:04.117Z,30.86
2023-07-24T20:39:06.440Z,31.12
2023-07-24T20:43:10.277Z,31.03
2023-07-24T20:47:12.538Z,30.78
2023-07-24T20:51:21.815Z,30.57
2023-07-24T20:55:23.973Z,30.42
2023-07-24T20:59:26.357Z,30.14
2023-07-24T21:03:28.477Z,29.98
2023-07-24T21:07:30.682Z,29.86
2023-07-24T21:11:33.767Z,29.78
2023-07-24T21:15:36.890Z,29.87
2023-07-24T21:19:39.023Z,29.87
2023-07-24T21:23:41.303Z,29.80
2023-07-24T21:27:43.409Z,29.66
2023-07-24T21:31:45.536Z,29.70
2023-07-24T21:36:02.446Z,29.57
2023-07-24T21:40:05.208Z,29.42
2023-07-24T21:44:07.297Z,29.44
2023-07-24T21:48:09.717Z,29.52
2023-07-24T21:52:12.093Z,29.69
2023-07-24T21:56:14.727Z,29.77
2023-07-24T22:00:16.943Z,29.75
2023-07-24T22:04:19.372Z,29.77
2023-07-24T22:08:21.430Z,29.85
2023-07-24T22:12:23.739Z,29.94
2023-07-24T22:16:25.921Z,30.28
2023-07-24T22:20:39.219Z,30.29
2023-07-24T22:24:42.478Z,30.29
2023-07-24T22:28:44.522Z,30.24
2023-07-24T22:32:46.801Z,30.25
2023-07-24T22:36:48.882Z,30.14
2023-07-24T22:40:50.999Z,30.09
2023-07-24T22:44:53.079Z,30.04
2023-07-24T22:48:55.370Z,30.05
2023-07-24T22:52:57.880Z,30.05
2023-07-24T22:56:59.933Z,30.06
2023-07-24T23:01:02.026Z,30.18
2023-07-24T23:05:08.928Z,29.84
2023-07-24T23:09:13.214Z,29.64
2023-07-24T23:13:15.678Z,29.67
2023-07-24T23:17:17.802Z,29.69
2023-07-24T23:21:19.922Z,29.74
2023-07-24T23:25:22.088Z,29.81
2023-07-24T23:29:24.228Z,29.75
2023-07-24T23:33:26.392Z,29.77
2023-07-24T23:37:28.441Z,29.70
2023-07-24T23:41:31.032Z,29.68
2023-07-24T23:45:34.125Z,29.66
2023-07-24T23:49:36.256Z,29.41
2023-07-24T23:53:38.326Z,29.07
2023-07-24T23:57:40.454Z,29.22
